Time;durP1;ratioP1;P1;durP2;ratioP2;P2;SDS_P1;SDS_P2;PMS_P1;PMS_P2;Temp;Humidity;BMP_temperature;BMP_pressure;BME280_temperature;BME280_humidity;BME280_pressure;Samples;Min_cycle;Max_cycle;Signal;HPM_P1;HPM_P2
2023/02/23 00:00:31;;;;;;;24.00;12.50;;;10.20;99.90;;;;;;5089291;28;20417;-56
2023/02/23 00:03:00;;;;;;;28.40;13.77;;;10.30;99.90;;;;;;5088016;28;20564;-56
2023/02/23 00:05:34;;;;;;;28.33;12.55;;;10.20;99.90;;;;;;5088847;28;20402;-56
2023/02/23 00:08:00;;;;;;;23.00;12.98;;;10.30;99.90;;;;;;5088566;28;20402;-56
2023/02/23 00:10:29;;;;;;;25.48;13.35;;;10.30;99.90;;;;;;5089075;28;20933;-56
2023/02/23 00:12:56;;;;;;;25.98;12.30;;;10.40;99.90;;;;;;5088234;28;20986;-56
2023/02/23 00:15:25;;;;;;;27.27;12.60;;;10.40;99.90;;;;;;5089168;28;20398;-56
2023/02/23 00:17:55;;;;;;;26.60;13.13;;;10.50;99.90;;;;;;5088165;28;20386;-56
2023/02/23 00:20:26;;;;;;;25.08;12.85;;;10.50;99.90;;;;;;5092149;28;20398;-56
2023/02/23 00:22:53;;;;;;;28.77;12.60;;;10.50;99.90;;;;;;5091960;28;20409;-56
2023/02/23 00:25:19;;;;;;;25.50;12.50;;;10.60;99.90;;;;;;5092599;28;20406;-56
2023/02/23 00:27:47;;;;;;;27.80;12.90;;;10.50;99.90;;;;;;5091073;28;20421;-56
2023/02/23 00:30:14;;;;;;;22.83;12.55;;;10.50;99.90;;;;;;5092709;28;20388;-56
2023/02/23 00:32:40;;;;;;;27.05;13.38;;;10.40;99.90;;;;;;5092368;28;20398;-56
2023/02/23 00:35:15;;;;;;;32.42;13.90;;;10.40;99.90;;;;;;5090687;28;20960;-56
2023/02/23 00:37:43;;;;;;;25.17;13.18;;;10.20;99.90;;;;;;5091627;28;20858;-56
2023/02/23 00:40:12;;;;;;;28.23;13.82;;;10.10;1.00;;;;;;5092073;28;20370;-56
2023/02/23 00:42:38;;;;;;;29.07;13.07;;;10.00;99.90;;;;;;5092216;28;20735;-56
2023/02/23 00:45:09;;;;;;;25.42;13.35;;;10.10;1.00;;;;;;5091637;28;20416;-56
2023/02/23 00:47:35;;;;;;;24.00;13.65;;;10.10;1.00;;;;;;5091816;28;20467;-56
2023/02/23 00:50:06;;;;;;;27.87;13.60;;;10.20;1.00;;;;;;5091421;28;21008;-56
2023/02/23 00:52:32;;;;;;;25.42;13.07;;;10.30;1.00;;;;;;5091965;28;20389;-56
2023/02/23 00:54:57;;;;;;;25.10;13.48;;;10.40;1.00;;;;;;5090960;28;20418;-56
2023/02/23 00:57:23;;;;;;;25.20;13.50;;;10.50;99.90;;;;;;5092536;28;20390;-56
2023/02/23 00:59:48;;;;;;;26.87;13.63;;;10.60;99.90;;;;;;5091389;28;20416;-57
2023/02/23 01:02:14;;;;;;;27.85;13.60;;;10.70;94.80;;;;;;5091619;28;21061;-56
2023/02/23 01:04:40;;;;;;;28.60;14.10;;;10.70;33.00;;;;;;5091636;28;20397;-56
2023/02/23 01:07:05;;;;;;;30.03;13.67;;;10.60;99.90;;;;;;5090932;28;20394;-56
2023/02/23 01:09:32;;;;;;;25.85;12.80;;;10.50;99.90;;;;;;5091241;28;20923;-56
2023/02/23 01:12:00;;;;;;;23.95;13.13;;;10.50;99.90;;;;;;5090596;28;20489;-56
2023/02/23 01:14:26;;;;;;;27.75;13.40;;;10.40;1.00;;;;;;5091336;28;20412;-56
2023/02/23 01:16:52;;;;;;;24.23;13.07;;;10.40;99.90;;;;;;5090457;28;20466;-57
2023/02/23 01:19:18;;;;;;;26.98;13.35;;;10.40;99.90;;;;;;5090998;28;20394;-56
2023/02/23 01:21:43;;;;;;;24.10;12.50;;;10.30;99.90;;;;;;5090969;28;20467;-56
2023/02/23 01:24:11;;;;;;;28.77;12.32;;;10.30;99.90;;;;;;5090616;28;20393;-56
2023/02/23 01:26:40;;;;;;;27.13;12.88;;;10.20;99.90;;;;;;5091079;28;20414;-56
2023/02/23 01:29:08;;;;;;;25.40;13.33;;;10.20;64.50;;;;;;5090664;28;20401;-56
2023/02/23 01:31:36;;;;;;;26.08;13.10;;;10.30;1.00;;;;;;5089818;28;20469;-56
2023/02/23 01:34:03;;;;;;;27.00;13.50;;;10.40;1.00;;;;;;5090435;28;20378;-56
2023/02/23 01:36:31;;;;;;;25.00;12.57;;;10.30;99.90;;;;;;5091267;28;20410;-56
2023/02/23 01:38:58;;;;;;;25.05;13.75;;;10.30;99.90;;;;;;5090370;28;20386;-56
2023/02/23 01:41:25;;;;;;;26.15;12.27;;;10.20;99.90;;;;;;5091097;28;20500;-56
2023/02/23 01:44:13;;;;;;;24.67;13.32;;;10.10;99.90;;;;;;5090645;28;20439;-56
2023/02/23 01:46:42;;;;;;;30.10;13.80;;;10.10;99.90;;;;;;5091364;28;20469;-56
2023/02/23 01:49:19;;;;;;;28.42;14.60;;;10.00;99.90;;;;;;5090605;28;20762;-56
2023/02/23 01:51:51;;;;;;;25.20;13.57;;;9.40;1.00;;;;;;5090319;28;20386;-56
2023/02/23 01:54:35;;;;;;;29.98;14.25;;;9.90;99.90;;;;;;5090678;28;20403;-56
2023/02/23 01:57:02;;;;;;;24.45;13.30;;;9.90;99.90;;;;;;5089940;28;20405;-56
2023/02/23 01:59:36;;;;;;;31.60;14.55;;;9.80;1.00;;;;;;5090899;28;20386;-56
2023/02/23 02:02:05;;;;;;;30.10;15.00;;;9.90;1.00;;;;;;5088295;28;20398;-56
2023/02/23 02:04:43;;;;;;;26.85;14.77;;;9.90;1.00;;;;;;5090258;28;20398;-56
2023/02/23 02:07:13;;;;;;;26.58;14.15;;;10.00;99.90;;;;;;5090094;28;20390;-56
2023/02/23 02:09:48;;;;;;;29.15;14.13;;;9.90;1.00;;;;;;5090275;28;20762;-56
2023/02/23 02:12:13;;;;;;;28.85;15.20;;;10.00;1.00;;;;;;5090504;28;20449;-56
2023/02/23 02:14:39;;;;;;;30.50;14.57;;;10.00;99.90;;;;;;5050044;28;20789;-56
2023/02/23 02:17:20;;;;;;;28.53;14.10;;;9.90;99.90;;;;;;5049640;28;20382;-56
2023/02/23 02:19:58;;;;;;;34.95;14.98;;;9.90;1.00;;;;;;5076653;28;20394;-56
2023/02/23 02:22:55;;;;;;;29.67;14.48;;;9.90;1.00;;;;;;5090409;28;20394;-56
2023/02/23 02:25:32;;;;;;;31.67;15.70;;;9.80;99.90;;;;;;5050659;28;20755;-56
2023/02/23 02:28:36;;;;;;;32.60;14.88;;;9.70;99.90;;;;;;5075105;28;20895;-56
2023/02/23 02:31:29;;;;;;;31.53;14.60;;;9.70;1.00;;;;;;5089616;28;20879;-56
2023/02/23 02:33:57;;;;;;;33.17;15.10;;;9.70;1.00;;;;;;5088812;28;20759;-57
2023/02/23 02:37:01;;;;;;;28.33;15.20;;;9.70;99.90;;;;;;5089759;28;20448;-57
2023/02/23 02:39:35;;;;;;;29.70;14.87;;;9.80;99.90;;;;;;5090091;28;20381;-56
2023/02/23 02:42:10;;;;;;;32.47;16.02;;;9.70;99.90;;;;;;5088940;28;20460;-56
2023/02/23 02:45:03;;;;;;;29.42;16.00;;;9.60;1.00;;;;;;5089729;28;20750;-56
2023/02/23 02:47:45;;;;;;;31.92;16.13;;;9.60;1.00;;;;;;5089398;28;20931;-56
2023/02/23 02:50:20;;;;;;;32.97;16.52;;;9.70;1.00;;;;;;5089490;28;20370;-56
2023/02/23 02:53:04;;;;;;;32.05;15.98;;;9.60;1.00;;;;;;5089208;28;20861;-56
2023/02/23 02:55:33;;;;;;;30.08;15.10;;;9.60;1.00;;;;;;5089253;28;20894;-56
2023/02/23 02:58:06;;;;;;;37.10;17.13;;;9.50;1.00;;;;;;5087821;28;20394;-56
2023/02/23 04:18:03;;;;;;;34.63;16.75;;;9.80;99.90;;;;;;5091954;28;20410;-56
2023/02/23 04:20:29;;;;;;;31.03;17.00;;;9.90;99.90;;;;;;5092205;28;20489;-57
2023/02/23 04:22:54;;;;;;;30.65;16.15;;;9.90;99.90;;;;;;5092251;28;20739;-56
2023/02/23 04:25:23;;;;;;;32.43;16.73;;;9.90;99.90;;;;;;5092700;28;20416;-56
2023/02/23 04:27:50;;;;;;;32.22;16.42;;;9.90;99.90;;;;;;5091632;28;20447;-56
2023/02/23 04:30:16;;;;;;;33.95;17.60;;;10.00;99.90;;;;;;5090282;28;20394;-57
2023/02/23 04:32:44;;;;;;;33.15;17.02;;;9.90;90.50;;;;;;5087255;28;20401;-57
2023/02/23 04:35:11;;;;;;;31.58;15.48;;;9.90;99.90;;;;;;5091196;28;20404;-57
2023/02/23 04:37:37;;;;;;;28.35;16.40;;;10.00;99.90;;;;;;5090924;28;20833;-56
2023/02/23 04:40:04;;;;;;;31.90;16.10;;;9.90;99.90;;;;;;5091432;28;20386;-57
2023/02/23 04:42:30;;;;;;;32.00;16.85;;;10.10;99.90;;;;;;5081609;28;20390;-56
2023/02/23 04:44:55;;;;;;;33.75;16.48;;;10.10;99.90;;;;;;5091089;28;20404;-57
2023/02/23 04:47:21;;;;;;;32.93;16.23;;;10.10;99.90;;;;;;5091597;28;20875;-57
2023/02/23 04:49:46;;;;;;;32.23;16.70;;;10.00;93.90;;;;;;5090897;28;20875;-56
2023/02/23 04:52:12;;;;;;;30.20;15.90;;;9.10;99.90;;;;;;5089780;28;20815;-57
2023/02/23 04:54:38;;;;;;;32.83;16.93;;;9.90;99.90;;;;;;5091417;28;20402;-57
2023/02/23 04:57:05;;;;;;;32.55;16.30;;;9.80;1.00;;;;;;5090381;28;20430;-57
2023/02/23 04:59:31;;;;;;;35.08;17.50;;;9.90;99.90;;;;;;5086259;28;20397;-56
2023/02/23 05:01:57;;;;;;;31.40;15.57;;;9.90;99.90;;;;;;5090551;28;20397;-57
2023/02/23 05:04:23;;;;;;;29.00;16.77;;;9.80;1.00;;;;;;5091238;28;20382;-56
2023/02/23 05:06:49;;;;;;;29.38;15.50;;;9.80;1.00;;;;;;5090985;28;20896;-56
2023/02/23 05:09:14;;;;;;;32.17;16.15;;;9.80;1.00;;;;;;5090626;28;20386;-56
2023/02/23 05:11:40;;;;;;;31.33;16.67;;;9.90;99.90;;;;;;5090760;28;20397;-56
2023/02/23 05:14:06;;;;;;;29.40;16.57;;;10.90;99.90;;;;;;5088597;28;20374;-57
2023/02/23 05:16:32;;;;;;;33.42;17.10;;;9.70;1.00;;;;;;5079952;28;20416;-56
2023/02/23 05:18:57;;;;;;;33.85;16.88;;;9.70;1.00;;;;;;5091808;28;20373;-57
2023/02/23 05:21:23;;;;;;;33.97;17.60;;;9.70;1.00;;;;;;5090531;28;20910;-57
2023/02/23 05:23:49;;;;;;;33.50;15.90;;;9.60;1.00;;;;;;5089220;28;20377;-57
2023/02/23 05:26:15;;;;;;;33.95;17.00;;;9.60;1.00;;;;;;5068387;28;20442;-57
2023/02/23 05:28:43;;;;;;;31.45;16.75;;;9.50;1.00;;;;;;5065763;28;20426;-56
2023/02/23 05:31:10;;;;;;;28.63;15.55;;;9.60;1.00;;;;;;5070189;28;20462;-56
2023/02/23 05:33:44;;;;;;;29.15;16.52;;;9.60;1.00;;;;;;5054024;28;20801;-56
2023/02/23 05:36:16;;;;;;;35.03;16.23;;;9.60;32.30;;;;;;5057465;28;20421;-56
2023/02/23 05:38:42;;;;;;;29.27;16.50;;;9.70;1.00;;;;;;5051027;28;20483;-56
2023/02/23 05:41:10;;;;;;;29.35;15.52;;;9.60;1.00;;;;;;5074353;28;20736;-56
2023/02/23 05:43:36;;;;;;;36.03;17.58;;;9.60;19.40;;;;;;5064614;28;20397;-56
2023/02/23 05:46:10;;;;;;;31.13;16.67;;;9.60;1.00;;;;;;5059516;28;20459;-56
2023/02/23 05:48:36;;;;;;;29.52;16.20;;;9.50;79.80;;;;;;5070008;28;20388;-56
2023/02/23 05:51:06;;;;;;;32.25;16.23;;;9.50;99.90;;;;;;5087289;28;20386;-55
2023/02/23 05:53:34;;;;;;;31.70;16.40;;;9.50;99.90;;;;;;5051608;28;20406;-56
2023/02/23 05:56:01;;;;;;;32.03;15.65;;;9.50;99.90;;;;;;5048272;28;20440;-56
2023/02/23 05:58:27;;;;;;;34.70;17.38;;;9.50;99.90;;;;;;5067680;28;20394;-56
2023/02/23 06:00:52;;;;;;;30.65;15.48;;;9.60;99.90;;;;;;5069198;28;20467;-56
2023/02/23 06:03:18;;;;;;;36.60;17.13;;;9.70;99.90;;;;;;5073636;28;20385;-55
2023/02/23 06:05:56;;;;;;;34.03;17.40;;;9.70;99.90;;;;;;5070783;28;20388;-56
2023/02/23 06:08:23;;;;;;;32.33;16.67;;;9.80;99.90;;;;;;5059819;28;20447;-56
2023/02/23 06:10:49;;;;;;;29.97;16.80;;;9.80;90.90;;;;;;5061074;28;20440;-56
2023/02/23 06:13:15;;;;;;;28.98;17.30;;;9.70;99.90;;;;;;5057653;28;20397;-56
2023/02/23 06:15:41;;;;;;;29.40;15.57;;;9.70;99.90;;;;;;5058201;28;20416;-56
2023/02/23 06:18:09;;;;;;;31.92;16.38;;;9.70;99.90;;;;;;5070814;28;20384;-56
2023/02/23 06:20:36;;;;;;;33.28;16.52;;;9.80;99.90;;;;;;5090471;28;20381;-56
2023/02/23 06:23:02;;;;;;;34.50;16.60;;;9.80;99.90;;;;;;5089570;28;20378;-56
2023/02/23 06:25:29;;;;;;;36.08;16.42;;;9.90;99.90;;;;;;5090027;28;20406;-56
2023/02/23 06:27:54;;;;;;;30.97;16.50;;;9.90;93.50;;;;;;5089682;28;20861;-56
2023/02/23 06:30:20;;;;;;;28.92;16.30;;;9.90;36.70;;;;;;5089949;28;20431;-56
2023/02/23 06:32:46;;;;;;;33.47;16.70;;;9.80;99.90;;;;;;5090065;28;20394;-56
2023/02/23 06:35:12;;;;;;;30.90;15.60;;;9.90;99.90;;;;;;5089336;28;20414;-55
2023/02/23 06:37:38;;;;;;;30.55;16.75;;;10.00;99.90;;;;;;5090382;28;20366;-56
2023/02/23 06:40:04;;;;;;;37.60;15.20;;;10.00;71.90;;;;;;5089316;28;20990;-56
2023/02/23 06:42:30;;;;;;;33.17;16.65;;;10.10;95.30;;;;;;5090053;28;20382;-56
2023/02/23 06:44:56;;;;;;;31.37;15.73;;;10.00;1.00;;;;;;5087735;28;20755;-56
2023/02/23 06:47:21;;;;;;;35.30;17.90;;;10.10;1.00;;;;;;5090109;28;20459;-55
2023/02/23 06:49:47;;;;;;;36.17;17.03;;;10.10;1.00;;;;;;5089771;28;20378;-56
2023/02/23 06:52:13;;;;;;;32.00;16.77;;;10.20;1.00;;;;;;5089424;28;20435;-56
2023/02/23 06:54:40;;;;;;;31.05;16.75;;;10.20;1.00;;;;;;5088584;28;20460;-55
2023/02/23 06:57:06;;;;;;;30.73;16.73;;;10.20;1.00;;;;;;5088892;28;20434;-55
2023/02/23 06:59:32;;;;;;;34.83;17.58;;;10.10;1.00;;;;;;5089691;28;20390;-56
2023/02/23 07:01:58;;;;;;;33.45;17.48;;;11.00;1.00;;;;;;5088760;28;20447;-56
2023/02/23 07:04:24;;;;;;;32.03;15.97;;;10.00;1.00;;;;;;5074548;28;20483;-56
2023/02/23 07:06:50;;;;;;;29.52;15.02;;;10.10;1.00;;;;;;5074768;28;20472;-56
2023/02/23 07:09:16;;;;;;;29.20;16.02;;;10.00;1.00;;;;;;5068135;28;20884;-56
2023/02/23 07:11:43;;;;;;;31.35;16.40;;;10.10;1.00;;;;;;5069811;28;20465;-56
2023/02/23 07:14:10;;;;;;;34.55;16.88;;;10.00;48.80;;;;;;5068059;28;20414;-56
2023/02/23 07:16:37;;;;;;;35.15;16.23;;;10.10;96.70;;;;;;5073876;28;20432;-56
2023/02/23 07:19:03;;;;;;;29.27;15.80;;;10.10;15.60;;;;;;5088911;28;20394;-56
2023/02/23 07:21:30;;;;;;;34.25;17.05;;;10.20;12.30;;;;;;5089468;28;20386;-56
2023/02/23 07:23:57;;;;;;;28.35;15.55;;;10.20;1.00;;;;;;5069380;28;20419;-56
2023/02/23 07:26:23;;;;;;;34.85;17.20;;;10.20;78.30;;;;;;5069158;28;20539;-56
2023/02/23 07:28:49;;;;;;;34.28;16.58;;;10.20;99.90;;;;;;5072446;28;20853;-56
2023/02/23 07:31:14;;;;;;;33.83;15.30;;;10.30;1.00;;;;;;5071136;28;20431;-56
2023/02/23 07:33:40;;;;;;;33.27;16.00;;;10.40;2.60;;;;;;5092453;28;20472;-56
2023/02/23 07:36:06;;;;;;;30.13;16.60;;;10.40;43.30;;;;;;5092389;28;20406;-55
2023/02/23 07:38:32;;;;;;;30.60;15.70;;;10.40;6.00;;;;;;5093351;28;20869;-56
2023/02/23 07:40:58;;;;;;;26.58;15.15;;;10.40;57.50;;;;;;5073631;28;20735;-56
2023/02/23 07:43:23;;;;;;;28.03;15.03;;;10.50;99.90;;;;;;5081143;28;20633;-56
2023/02/23 07:45:50;;;;;;;26.48;15.27;;;10.60;99.90;;;;;;5093441;28;20389;-55
2023/02/23 07:48:16;;;;;;;32.47;16.07;;;10.70;99.90;;;;;;5092745;28;20417;-56
2023/02/23 07:50:42;;;;;;;31.85;16.08;;;10.80;99.90;;;;;;5093252;28;20374;-56
2023/02/23 07:53:10;;;;;;;33.07;16.67;;;10.90;1.00;;;;;;5092340;28;20863;-55
2023/02/23 07:55:37;;;;;;;34.60;18.08;;;11.00;1.00;;;;;;5093315;28;20409;-55
2023/02/23 07:58:04;;;;;;;30.77;16.55;;;11.20;1.00;;;;;;5092818;28;20439;-55
2023/02/23 08:00:30;;;;;;;28.60;15.30;;;11.00;1.00;;;;;;5081886;28;20382;-56
2023/02/23 08:02:56;;;;;;;32.58;17.00;;;11.10;1.00;;;;;;5092318;28;20447;-56
2023/02/23 08:05:21;;;;;;;29.00;14.60;;;11.20;1.00;;;;;;5088815;28;20423;-56
2023/02/23 08:07:47;;;;;;;34.45;15.05;;;11.30;1.00;;;;;;5072438;28;20811;-56
2023/02/23 08:10:12;;;;;;;25.23;12.73;;;11.40;1.00;;;;;;5071845;28;20379;-56
2023/02/23 08:12:38;;;;;;;24.93;12.90;;;11.50;1.00;;;;;;5073291;28;20819;-55
2023/02/23 08:15:07;;;;;;;26.77;13.77;;;11.50;99.80;;;;;;5070909;28;20804;-55
2023/02/23 08:17:33;;;;;;;23.45;13.48;;;11.60;99.90;;;;;;5083998;28;20939;-56
2023/02/23 08:19:59;;;;;;;23.92;10.80;;;11.60;80.50;;;;;;5092171;28;20374;-56
2023/02/23 08:22:25;;;;;;;23.45;11.00;;;11.60;1.00;;;;;;5090864;28;20739;-56
2023/02/23 08:24:51;;;;;;;19.88;10.85;;;11.60;1.00;;;;;;5072038;28;20388;-56
2023/02/23 08:27:18;;;;;;;22.95;10.40;;;11.60;1.00;;;;;;5071884;28;20400;-56
2023/02/23 08:29:43;;;;;;;24.88;12.02;;;11.60;1.00;;;;;;5072756;28;20528;-56
2023/02/23 08:32:09;;;;;;;23.43;11.23;;;11.70;99.90;;;;;;5071671;28;20399;-56
2023/02/23 08:34:42;;;;;;;20.65;10.85;;;11.70;99.90;;;;;;5073981;28;20459;-56
2023/02/23 08:37:08;;;;;;;20.27;10.68;;;11.70;99.90;;;;;;5091597;28;20433;-55
2023/02/23 08:39:34;;;;;;;18.55;10.50;;;11.60;1.00;;;;;;5091792;28;20389;-56
2023/02/23 08:41:59;;;;;;;19.50;9.87;;;11.60;1.00;;;;;;5091724;28;20385;-56
2023/02/23 08:44:25;;;;;;;18.70;9.68;;;11.60;99.90;;;;;;5092576;28;20386;-56
2023/02/23 08:46:52;;;;;;;23.00;10.20;;;11.80;1.00;;;;;;5092130;28;20389;-56
2023/02/23 08:49:18;;;;;;;20.02;8.82;;;11.80;99.90;;;;;;5091900;28;20382;-56
2023/02/23 08:51:45;;;;;;;17.75;9.30;;;11.80;99.90;;;;;;5090072;28;20412;-56
2023/02/23 08:54:13;;;;;;;17.27;8.50;;;12.00;99.90;;;;;;5090815;28;20390;-56
2023/02/23 08:56:41;;;;;;;18.87;8.77;;;12.20;99.90;;;;;;5089158;28;20410;-57
2023/02/23 08:59:07;;;;;;;20.17;8.95;;;12.20;1.00;;;;;;5093547;28;20399;-57
2023/02/23 09:01:36;;;;;;;16.73;8.68;;;12.30;99.90;;;;;;5085215;28;20392;-56
2023/02/23 09:04:03;;;;;;;17.73;8.98;;;12.40;1.00;;;;;;5091022;28;20455;-56
2023/02/23 09:06:31;;;;;;;17.00;7.72;;;12.40;99.90;;;;;;5091425;28;20901;-56
2023/02/23 09:08:56;;;;;;;17.88;8.43;;;12.30;8.60;;;;;;5089423;28;20411;-57
2023/02/23 09:11:23;;;;;;;17.30;8.10;;;12.40;1.00;;;;;;5091200;28;20469;-56
2023/02/23 09:13:49;;;;;;;16.92;8.50;;;12.40;1.00;;;;;;5091306;28;20390;-57
2023/02/23 09:16:14;;;;;;;16.35;8.02;;;12.40;1.00;;;;;;5090776;28;20409;-57
2023/02/23 09:18:41;;;;;;;21.50;8.60;;;12.30;1.00;;;;;;5082847;28;20388;-57
2023/02/23 09:21:17;;;;;;;15.38;7.38;;;12.40;99.90;;;;;;5086199;28;20398;-56
2023/02/23 09:23:45;;;;;;;14.02;7.15;;;12.30;1.00;;;;;;5091357;28;20441;-56
2023/02/23 09:26:11;;;;;;;18.67;8.05;;;12.40;1.00;;;;;;5090348;28;20405;-56
2023/02/23 09:28:37;;;;;;;15.45;7.30;;;12.50;1.00;;;;;;5074325;28;20437;-56
2023/02/23 09:31:08;;;;;;;16.33;6.63;;;12.50;1.00;;;;;;5085348;28;20443;-56
2023/02/23 09:33:33;;;;;;;14.20;6.80;;;12.60;1.00;;;;;;5090585;28;20496;-56
2023/02/23 09:35:59;;;;;;;15.88;6.85;;;12.90;1.00;;;;;;5090495;28;20468;-56
2023/02/23 09:38:25;;;;;;;16.20;7.00;;;12.80;99.90;;;;;;5082918;28;20438;-56
2023/02/23 09:40:53;;;;;;;14.17;6.53;;;12.70;99.90;;;;;;5071027;28;20379;-56
2023/02/23 09:43:41;;;;;;;14.35;6.32;;;13.30;99.90;;;;;;5070459;28;20395;-56
2023/02/23 09:46:13;;;;;;;14.23;6.13;;;13.80;44.70;;;;;;5070064;28;20391;-56
2023/02/23 09:48:39;;;;;;;12.77;5.82;;;14.20;1.00;;;;;;5070763;28;20482;-56
2023/02/23 09:51:07;;;;;;;14.18;6.50;;;14.60;99.90;;;;;;5081332;28;20385;-56
2023/02/23 09:53:44;;;;;;;13.30;6.00;;;14.90;99.90;;;;;;5072686;28;20556;-56
2023/02/23 09:56:36;;;;;;;12.52;5.68;;;15.30;99.90;;;;;;5090424;28;20902;-57
2023/02/23 09:59:05;;;;;;;15.40;5.80;;;15.90;99.90;;;;;;5089671;28;20406;-57
2023/02/23 10:01:47;;;;;;;10.35;5.68;;;16.40;23.10;;;;;;5090849;28;20929;-57
2023/02/23 10:04:31;;;;;;;13.82;5.50;;;16.80;1.00;;;;;;5090059;28;20386;-57
2023/02/23 10:07:10;;;;;;;16.03;5.57;;;16.80;1.00;;;;;;5080353;28;20410;-57
2023/02/23 10:09:54;;;;;;;10.02;4.18;;;17.60;1.00;;;;;;5069723;28;20851;-57
2023/02/23 10:12:52;;;;;;;11.05;4.25;;;17.80;1.00;;;;;;5070368;28;20387;-56
2023/02/23 10:15:48;;;;;;;9.00;3.92;;;18.30;1.00;;;;;;5048948;28;20417;-57
2023/02/23 10:18:20;;;;;;;10.52;4.38;;;;;;;;;;5046213;28;20551;-57
2023/02/23 10:20:58;;;;;;;10.10;3.90;;;17.90;1.00;;;;;;5050203;28;20377;-57
2023/02/23 10:23:34;;;;;;;8.52;3.22;;;18.30;1.00;;;;;;5049832;28;20692;-57
2023/02/23 10:26:01;;;;;;;8.90;3.80;;;19.00;1.00;;;;;;5064867;28;20405;-57
2023/02/23 10:28:32;;;;;;;9.18;3.97;;;19.70;1.00;;;;;;5086872;28;20436;-57
2023/02/23 10:30:58;;;;;;;8.95;4.22;;;20.50;1.00;;;;;;5089465;28;20477;-57
2023/02/23 10:33:36;;;;;;;10.30;4.30;;;20.00;1.00;;;;;;5090056;28;20390;-57
2023/02/23 10:36:18;;;;;;;9.70;4.10;;;19.20;1.00;;;;;;5089572;28;20759;-57
2023/02/23 10:38:44;;;;;;;12.23;4.40;;;18.80;1.00;;;;;;5089019;28;20920;-57
2023/02/23 10:41:11;;;;;;;10.85;4.72;;;18.90;1.00;;;;;;5089602;28;20512;-57
2023/02/23 10:43:37;;;;;;;11.80;4.50;;;18.70;1.00;;;;;;5089987;28;20850;-57
2023/02/23 10:46:05;;;;;;;9.00;3.78;;;18.40;1.00;;;;;;5089277;28;20469;-57
2023/02/23 10:48:41;;;;;;;11.32;4.30;;;18.30;1.00;;;;;;5089850;28;20382;-57
2023/02/23 10:51:23;;;;;;;10.02;3.80;;;18.10;1.00;;;;;;5088971;28;20843;-57
2023/02/23 10:53:48;;;;;;;13.50;4.95;;;17.50;1.00;;;;;;5088872;28;20460;-56
2023/02/23 10:56:17;;;;;;;10.25;4.03;;;16.90;99.90;;;;;;5088826;28;21113;-57
2023/02/23 10:58:46;;;;;;;11.90;3.50;;;16.70;99.90;;;;;;5089833;28;20386;-57
2023/02/23 11:01:31;;;;;;;8.50;3.50;;;16.30;1.00;;;;;;5089059;28;20389;-57
2023/02/23 11:04:12;;;;;;;10.20;4.07;;;16.40;1.00;;;;;;5088553;28;20374;-57
2023/02/23 11:06:38;;;;;;;8.93;3.33;;;16.60;1.00;;;;;;5088410;28;20370;-57
2023/02/23 11:09:23;;;;;;;9.10;3.65;;;16.60;1.00;;;;;;5068983;28;20383;-57
2023/02/23 11:12:01;;;;;;;10.65;3.83;;;16.40;1.00;;;;;;5069370;28;20433;-57
2023/02/23 11:14:28;;;;;;;10.83;4.10;;;16.40;1.00;;;;;;5069525;28;20455;-57
2023/02/23 11:16:56;;;;;;;10.00;3.40;;;16.10;1.00;;;;;;5068524;28;20413;-57
2023/02/23 11:19:37;;;;;;;9.68;4.05;;;16.10;1.00;;;;;;5069329;28;20395;-57
2023/02/23 11:22:04;;;;;;;9.68;3.90;;;16.20;1.00;;;;;;5068565;28;20394;-57
2023/02/23 11:24:36;;;;;;;10.90;4.17;;;16.40;1.00;;;;;;5069423;28;20400;-57
2023/02/23 11:27:05;;;;;;;9.70;3.80;;;16.50;1.00;;;;;;5067283;28;20407;-57
2023/02/23 11:29:34;;;;;;;9.47;2.93;;;16.70;1.00;;;;;;5069439;28;20387;-57
2023/02/23 11:32:22;;;;;;;9.60;4.10;;;16.40;1.00;;;;;;5068299;28;20395;-57
2023/02/23 11:35:19;;;;;;;10.67;3.60;;;16.10;1.00;;;;;;5079745;28;20406;-56
2023/02/23 11:37:46;;;;;;;9.07;3.70;;;16.20;1.00;;;;;;5076903;28;20539;-57
2023/02/23 11:40:31;;;;;;;12.93;4.00;;;16.20;1.00;;;;;;5085034;28;20404;-57
2023/02/23 11:43:03;;;;;;;11.07;3.47;;;16.20;1.00;;;;;;5068507;28;20388;-58
2023/02/23 11:45:32;;;;;;;9.00;3.58;;;16.30;1.00;;;;;;5081838;28;20847;-57
2023/02/23 11:48:01;;;;;;;9.27;3.55;;;16.20;1.00;;;;;;5088287;28;20386;-57
2023/02/23 11:50:29;;;;;;;11.90;4.18;;;16.40;1.00;;;;;;5089120;28;20389;-57
2023/02/23 11:52:57;;;;;;;11.25;3.40;;;16.30;1.00;;;;;;5088896;28;20374;-58
2023/02/23 11:55:24;;;;;;;10.25;3.22;;;16.00;1.00;;;;;;5089154;28;20456;-57
2023/02/23 11:57:51;;;;;;;11.27;3.97;;;16.10;99.90;;;;;;5074562;28;20797;-57
2023/02/23 12:00:26;;;;;;;10.18;3.42;;;15.80;99.90;;;;;;5068309;28;20376;-57
2023/02/23 12:02:57;;;;;;;17.25;7.28;;;15.80;1.00;;;;;;5069098;28;20423;-57
2023/02/23 12:05:32;;;;;;;15.15;5.70;;;15.80;1.00;;;;;;5067990;28;20400;-57
2023/02/23 12:08:14;;;;;;;9.65;3.80;;;15.80;1.00;;;;;;5068154;28;20388;-57
2023/02/23 12:10:42;;;;;;;8.93;3.30;;;15.60;99.90;;;;;;5068855;28;20368;-57
2023/02/23 12:13:29;;;;;;;9.90;3.57;;;15.70;1.00;;;;;;5067828;28;20380;-57
2023/02/23 12:16:25;;;;;;;9.70;3.53;;;16.20;1.00;;;;;;5071091;28;20513;-57
2023/02/23 12:18:58;;;;;;;13.00;3.70;;;16.60;1.00;;;;;;5072295;28;20471;-57
2023/02/23 12:21:38;;;;;;;14.18;3.63;;;16.70;1.00;;;;;;5072719;28;20868;-57
2023/02/23 12:24:23;;;;;;;9.38;3.30;;;16.70;99.90;;;;;;5071862;28;20391;-57
2023/02/23 12:27:11;;;;;;;9.80;3.50;;;16.90;99.90;;;;;;5049456;28;20415;-57
2023/02/23 12:30:07;;;;;;;12.57;3.70;;;17.10;1.00;;;;;;5071868;28;20488;-57
2023/02/23 12:32:35;;;;;;;10.23;3.40;;;17.00;99.90;;;;;;5068100;28;20442;-57
2023/02/23 12:35:26;;;;;;;9.98;2.88;;;17.00;99.90;;;;;;5071314;28;20426;-57
2023/02/23 12:38:16;;;;;;;12.05;3.40;;;16.90;99.90;;;;;;5071910;28;20869;-57
2023/02/23 12:40:43;;;;;;;8.90;3.47;;;16.50;99.90;;;;;;5072202;28;20379;-57
2023/02/23 12:43:35;;;;;;;9.20;3.60;;;16.20;1.00;;;;;;5071370;28;20920;-57
2023/02/23 12:46:26;;;;;;;9.80;2.97;;;16.10;99.90;;;;;;5071423;28;20384;-57
2023/02/23 12:49:17;;;;;;;13.40;4.03;;;15.80;99.90;;;;;;5070650;28;20403;-57
2023/02/23 12:51:50;;;;;;;8.10;2.87;;;15.60;99.90;;;;;;5072263;28;20372;-57
2023/02/23 12:54:17;;;;;;;9.07;2.95;;;15.50;99.90;;;;;;5070943;28;20603;-57
2023/02/23 12:57:09;;;;;;;10.05;3.05;;;15.50;99.90;;;;;;5071881;28;20498;-57
2023/02/23 12:59:56;;;;;;;9.77;3.42;;;15.50;99.90;;;;;;5071967;28;20428;-57
2023/02/23 13:02:28;;;;;;;13.27;3.58;;;15.40;99.90;;;;;;5071565;28;20395;-57
2023/02/23 13:05:23;;;;;;;10.97;3.40;;;15.40;99.90;;;;;;5071796;28;20436;-57
2023/02/23 13:07:57;;;;;;;10.27;3.45;;;15.30;99.90;;;;;;5071868;28;20425;-57
2023/02/23 13:10:42;;;;;;;10.00;3.30;;;15.20;99.90;;;;;;5086049;28;20422;-57
2023/02/23 13:13:16;;;;;;;9.52;3.25;;;15.20;99.90;;;;;;5088570;28;20404;-57
2023/02/23 13:15:58;;;;;;;9.88;3.00;;;15.30;99.90;;;;;;5073033;28;20413;-57
2023/02/23 13:18:34;;;;;;;11.93;3.47;;;15.30;99.90;;;;;;5079807;28;20465;-57
2023/02/23 13:21:07;;;;;;;11.13;3.25;;;15.30;99.90;;;;;;5090779;28;20896;-58
2023/02/23 13:23:53;;;;;;;12.00;3.55;;;15.10;99.90;;;;;;5074398;28;20485;-57
2023/02/23 13:26:45;;;;;;;11.60;3.83;;;14.90;99.90;;;;;;5086988;28;20554;-57
2023/02/23 13:29:22;;;;;;;10.50;3.22;;;14.80;99.90;;;;;;5072932;28;20398;-57
2023/02/23 13:31:48;;;;;;;8.57;3.20;;;14.80;99.90;;;;;;5075201;28;20390;-57
2023/02/23 13:34:26;;;;;;;12.25;4.10;;;14.80;99.90;;;;;;5090515;28;20370;-57
2023/02/23 13:36:52;;;;;;;10.88;3.20;;;14.90;99.90;;;;;;5090899;28;20450;-57
2023/02/23 13:39:33;;;;;;;10.73;2.95;;;14.90;99.90;;;;;;5080735;28;20838;-57
2023/02/23 13:42:38;;;;;;;8.27;3.15;;;14.80;99.90;;;;;;5078748;28;20748;-57
2023/02/23 13:45:28;;;;;;;9.45;3.38;;;14.80;99.90;;;;;;5073182;28;20398;-57
2023/02/23 13:48:15;;;;;;;10.77;4.88;;;14.70;99.90;;;;;;5091164;28;20377;-57
2023/02/23 13:50:46;;;;;;;10.02;3.10;;;14.80;99.90;;;;;;5091242;28;20390;-57
2023/02/23 13:53:37;;;;;;;10.63;2.80;;;14.90;99.90;;;;;;5089229;28;20390;-57
2023/02/23 13:56:25;;;;;;;8.10;2.70;;;15.00;99.90;;;;;;5089844;28;20539;-57
2023/02/23 13:59:00;;;;;;;10.63;3.17;;;15.10;99.90;;;;;;5090786;28;20370;-57
2023/02/23 14:01:26;;;;;;;10.52;3.08;;;15.20;99.90;;;;;;5090907;28;20385;-57
2023/02/23 14:03:57;;;;;;;9.53;2.97;;;15.30;99.90;;;;;;5090594;28;20452;-57
2023/02/23 14:06:26;;;;;;;8.60;2.78;;;15.40;99.90;;;;;;5090714;28;20414;-57
2023/02/23 14:09:07;;;;;;;11.60;3.08;;;15.40;99.90;;;;;;5090687;28;20867;-57
2023/02/23 14:11:44;;;;;;;10.15;2.78;;;15.40;99.90;;;;;;5090738;28;20477;-57
2023/02/23 14:14:33;;;;;;;13.02;3.63;;;15.30;99.90;;;;;;5078708;28;20905;-57
2023/02/23 14:17:34;;;;;;;12.45;4.63;;;15.20;99.90;;;;;;5069390;28;20490;-58